CheckWX is a tool to help pilots better visualize weather data.  It is not intended as a substitute for an official pre-flight weather briefing.

17:56:43 UTC

EGLL METAR
London Heathrow Airport
London, United Kingdom
Current

37 mins ago

EGLL 271720Z AUTO 15005KT 120V200 9999 NCD 05/04 Q0995 NOSIG
Observed
Jan-27 @ 17:20 UTC
Wind
  • 150° at 5 KTS
Visibility
10,000+ meters
Flight Rules
VFR
Cloud Levels
  • Clear skies
Temperature
C / 41°F
Dewpoint
C / 39°F
Humidity
93%
Altimeter
29.38" Hg
Pressure
994.92 hPa
Previous

1 hour ago

EGLL 271650Z AUTO 22005KT 9999 -RA SCT032 SCT039 BKN046 06/05 Q0995
Observed
Jan-27 @ 16:50 UTC
Wind
  • 220° at 5 KTS
Visibility
10,000+ meters
Flight Rules
VFR
Conditions
Light Rain
Cloud Levels
  • Scattered at 3,200' AGL
  • Scattered at 3,900' AGL
  • Broken at 4,600' AGL
Temperature
C / 43°F
Dewpoint
C / 41°F
Humidity
93%
Altimeter
29.38" Hg
Pressure
994.92 hPa
Previous

2 hours ago

EGLL 271620Z AUTO 25005KT 170V280 9999 -RA SCT020/// BKN026/// //////CB 06/05 Q0996 NOSIG
Observed
Jan-27 @ 16:20 UTC
Wind
  • 250° at 5 KTS
Visibility
10,000+ meters
Flight Rules
MVFR
Conditions
Light Rain
Cloud Levels
  • Scattered at 2,000' AGL
  • Broken at 2,600' AGL
Temperature
C / 43°F
Dewpoint
C / 41°F
Humidity
93%
Altimeter
29.41" Hg
Pressure
995.92 hPa